sensor_id;sensor_type;location;lat;lon;timestamp;temperature;humidity
7028;DHT22;3555;53.248;10.336;2023-04-30T00:01:25;8.90;1.00
7028;DHT22;3555;53.248;10.336;2023-04-30T00:03:52;8.80;1.00
7028;DHT22;3555;53.248;10.336;2023-04-30T00:06:18;8.60;1.00
7028;DHT22;3555;53.248;10.336;2023-04-30T00:08:45;8.50;1.00
7028;DHT22;3555;53.248;10.336;2023-04-30T00:11:14;8.50;1.00
7028;DHT22;3555;53.248;10.336;2023-04-30T00:13:40;8.60;1.00
7028;DHT22;3555;53.248;10.336;2023-04-30T00:16:08;8.70;1.00
7028;DHT22;3555;53.248;10.336;2023-04-30T00:18:35;8.70;1.00
7028;DHT22;3555;53.248;10.336;2023-04-30T00:21:02;8.60;1.00
7028;DHT22;3555;53.248;10.336;2023-04-30T00:23:29;8.50;1.00
7028;DHT22;3555;53.248;10.336;2023-04-30T00:25:56;8.50;1.00
7028;DHT22;3555;53.248;10.336;2023-04-30T00:28:24;8.40;1.00
7028;DHT22;3555;53.248;10.336;2023-04-30T00:30:51;8.40;1.00
7028;DHT22;3555;53.248;10.336;2023-04-30T00:33:18;8.40;1.00
7028;DHT22;3555;53.248;10.336;2023-04-30T00:35:45;8.30;1.00
7028;DHT22;3555;53.248;10.336;2023-04-30T00:38:12;8.40;1.00
7028;DHT22;3555;53.248;10.336;2023-04-30T00:40:39;8.30;1.00
7028;DHT22;3555;53.248;10.336;2023-04-30T00:43:07;8.20;1.00
7028;DHT22;3555;53.248;10.336;2023-04-30T00:45:35;8.20;1.00
7028;DHT22;3555;53.248;10.336;2023-04-30T00:48:02;8.30;1.00
7028;DHT22;3555;53.248;10.336;2023-04-30T00:50:29;8.10;1.00
7028;DHT22;3555;53.248;10.336;2023-04-30T00:52:56;8.10;1.00
7028;DHT22;3555;53.248;10.336;2023-04-30T00:55:24;8.00;1.00
7028;DHT22;3555;53.248;10.336;2023-04-30T00:57:52;8.10;1.00
7028;DHT22;3555;53.248;10.336;2023-04-30T01:00:19;8.10;1.00
7028;DHT22;3555;53.248;10.336;2023-04-30T01:02:48;8.10;1.00
7028;DHT22;3555;53.248;10.336;2023-04-30T01:05:15;8.10;1.00
7028;DHT22;3555;53.248;10.336;2023-04-30T01:07:43;8.00;1.00
7028;DHT22;3555;53.248;10.336;2023-04-30T01:10:11;8.00;1.00
7028;DHT22;3555;53.248;10.336;2023-04-30T01:12:45;8.10;1.00
7028;DHT22;3555;53.248;10.336;2023-04-30T01:15:21;8.00;1.00
7028;DHT22;3555;53.248;10.336;2023-04-30T01:17:54;8.00;1.00
7028;DHT22;3555;53.248;10.336;2023-04-30T01:20:23;8.00;1.00
7028;DHT22;3555;53.248;10.336;2023-04-30T01:22:54;7.90;1.00
7028;DHT22;3555;53.248;10.336;2023-04-30T01:25:47;7.90;1.00
7028;DHT22;3555;53.248;10.336;2023-04-30T01:28:19;7.80;1.00
7028;DHT22;3555;53.248;10.336;2023-04-30T01:30:47;7.80;1.00
7028;DHT22;3555;53.248;10.336;2023-04-30T01:33:14;7.70;1.00
7028;DHT22;3555;53.248;10.336;2023-04-30T01:36:09;7.80;1.00
7028;DHT22;3555;53.248;10.336;2023-04-30T01:38:52;7.50;1.00
7028;DHT22;3555;53.248;10.336;2023-04-30T01:41:29;7.30;1.00
7028;DHT22;3555;53.248;10.336;2023-04-30T01:44:13;7.20;1.00
7028;DHT22;3555;53.248;10.336;2023-04-30T01:46:45;7.20;1.00
7028;DHT22;3555;53.248;10.336;2023-04-30T01:49:18;7.20;1.00
7028;DHT22;3555;53.248;10.336;2023-04-30T01:51:51;7.10;1.00
7028;DHT22;3555;53.248;10.336;2023-04-30T01:54:25;7.20;1.00
7028;DHT22;3555;53.248;10.336;2023-04-30T01:56:57;7.10;1.00
7028;DHT22;3555;53.248;10.336;2023-04-30T01:59:28;7.20;1.00
7028;DHT22;3555;53.248;10.336;2023-04-30T02:01:56;7.20;1.00
7028;DHT22;3555;53.248;10.336;2023-04-30T02:04:23;7.10;1.00
7028;DHT22;3555;53.248;10.336;2023-04-30T02:06:50;7.10;1.00
7028;DHT22;3555;53.248;10.336;2023-04-30T02:09:17;7.10;1.00
7028;DHT22;3555;53.248;10.336;2023-04-30T02:11:43;7.20;1.00
7028;DHT22;3555;53.248;10.336;2023-04-30T02:14:10;7.20;1.00
7028;DHT22;3555;53.248;10.336;2023-04-30T02:16:38;7.20;1.00
7028;DHT22;3555;53.248;10.336;2023-04-30T02:19:05;7.20;1.00
7028;DHT22;3555;53.248;10.336;2023-04-30T02:21:32;7.30;1.00
7028;DHT22;3555;53.248;10.336;2023-04-30T02:23:59;7.40;1.00
7028;DHT22;3555;53.248;10.336;2023-04-30T02:26:26;7.30;1.00
7028;DHT22;3555;53.248;10.336;2023-04-30T02:28:53;7.30;1.00
7028;DHT22;3555;53.248;10.336;2023-04-30T02:31:20;7.60;1.00
7028;DHT22;3555;53.248;10.336;2023-04-30T02:33:48;7.50;1.00
7028;DHT22;3555;53.248;10.336;2023-04-30T02:36:15;7.10;1.00
7028;DHT22;3555;53.248;10.336;2023-04-30T02:38:42;7.10;1.00
7028;DHT22;3555;53.248;10.336;2023-04-30T02:41:09;7.10;1.00
7028;DHT22;3555;53.248;10.336;2023-04-30T02:43:36;7.70;1.00
7028;DHT22;3555;53.248;10.336;2023-04-30T02:46:02;7.00;1.00
7028;DHT22;3555;53.248;10.336;2023-04-30T02:48:30;6.90;1.00
7028;DHT22;3555;53.248;10.336;2023-04-30T02:50:58;6.80;1.00
7028;DHT22;3555;53.248;10.336;2023-04-30T02:53:25;6.90;1.00
7028;DHT22;3555;53.248;10.336;2023-04-30T02:55:51;6.90;1.00
7028;DHT22;3555;53.248;10.336;2023-04-30T02:58:18;6.90;1.00
7028;DHT22;3555;53.248;10.336;2023-04-30T03:00:45;6.90;1.00
7028;DHT22;3555;53.248;10.336;2023-04-30T03:03:12;6.80;1.00
7028;DHT22;3555;53.248;10.336;2023-04-30T03:05:39;6.90;1.00
7028;DHT22;3555;53.248;10.336;2023-04-30T03:08:07;6.80;1.00
7028;DHT22;3555;53.248;10.336;2023-04-30T03:10:34;6.90;1.00
7028;DHT22;3555;53.248;10.336;2023-04-30T03:13:01;6.80;1.00
7028;DHT22;3555;53.248;10.336;2023-04-30T03:15:27;6.80;1.00
7028;DHT22;3555;53.248;10.336;2023-04-30T03:17:55;6.90;1.00
7028;DHT22;3555;53.248;10.336;2023-04-30T03:20:22;6.90;1.00
7028;DHT22;3555;53.248;10.336;2023-04-30T03:22:49;6.90;1.00
7028;DHT22;3555;53.248;10.336;2023-04-30T03:25:17;7.20;1.00
7028;DHT22;3555;53.248;10.336;2023-04-30T03:27:44;6.80;1.00
7028;DHT22;3555;53.248;10.336;2023-04-30T03:30:11;6.80;1.00
7028;DHT22;3555;53.248;10.336;2023-04-30T03:32:37;6.80;1.00
7028;DHT22;3555;53.248;10.336;2023-04-30T03:35:05;6.80;1.00
7028;DHT22;3555;53.248;10.336;2023-04-30T03:37:32;6.80;1.00
7028;DHT22;3555;53.248;10.336;2023-04-30T03:39:59;6.90;1.00
7028;DHT22;3555;53.248;10.336;2023-04-30T03:42:27;6.90;1.00
7028;DHT22;3555;53.248;10.336;2023-04-30T03:44:54;6.70;1.00
7028;DHT22;3555;53.248;10.336;2023-04-30T03:47:21;6.70;1.00
7028;DHT22;3555;53.248;10.336;2023-04-30T03:49:48;6.70;1.00
7028;DHT22;3555;53.248;10.336;2023-04-30T03:52:19;6.50;1.00
7028;DHT22;3555;53.248;10.336;2023-04-30T03:54:46;6.60;1.00
7028;DHT22;3555;53.248;10.336;2023-04-30T03:57:13;6.40;1.00
7028;DHT22;3555;53.248;10.336;2023-04-30T03:59:41;6.40;43.50
7028;DHT22;3555;53.248;10.336;2023-04-30T04:02:08;6.40;7.60
7028;DHT22;3555;53.248;10.336;2023-04-30T04:04:35;6.40;91.10
7028;DHT22;3555;53.248;10.336;2023-04-30T04:07:02;6.30;99.90
7028;DHT22;3555;53.248;10.336;2023-04-30T04:09:29;6.20;99.90
7028;DHT22;3555;53.248;10.336;2023-04-30T04:11:56;6.30;99.90
7028;DHT22;3555;53.248;10.336;2023-04-30T04:14:23;6.30;99.90
7028;DHT22;3555;53.248;10.336;2023-04-30T04:16:51;6.30;99.90
7028;DHT22;3555;53.248;10.336;2023-04-30T04:19:18;6.10;99.90
7028;DHT22;3555;53.248;10.336;2023-04-30T04:21:45;6.00;99.90
7028;DHT22;3555;53.248;10.336;2023-04-30T04:24:12;6.10;99.90
7028;DHT22;3555;53.248;10.336;2023-04-30T04:26:39;6.00;1.00
7028;DHT22;3555;53.248;10.336;2023-04-30T04:29:06;6.00;1.00
7028;DHT22;3555;53.248;10.336;2023-04-30T04:31:33;6.00;1.00
7028;DHT22;3555;53.248;10.336;2023-04-30T04:34:03;6.00;1.00
7028;DHT22;3555;53.248;10.336;2023-04-30T04:36:30;6.00;1.00
7028;DHT22;3555;53.248;10.336;2023-04-30T04:38:58;6.00;1.00
7028;DHT22;3555;53.248;10.336;2023-04-30T04:41:26;6.10;1.00
7028;DHT22;3555;53.248;10.336;2023-04-30T04:43:53;6.20;1.00
7028;DHT22;3555;53.248;10.336;2023-04-30T04:46:21;6.20;1.00
7028;DHT22;3555;53.248;10.336;2023-04-30T04:48:48;6.20;1.00
7028;DHT22;3555;53.248;10.336;2023-04-30T04:51:16;6.30;1.00
7028;DHT22;3555;53.248;10.336;2023-04-30T04:53:43;6.30;1.00
7028;DHT22;3555;53.248;10.336;2023-04-30T04:56:10;6.30;1.00
7028;DHT22;3555;53.248;10.336;2023-04-30T04:58:37;6.30;99.20
7028;DHT22;3555;53.248;10.336;2023-04-30T05:01:04;6.30;99.90
7028;DHT22;3555;53.248;10.336;2023-04-30T05:03:32;6.80;99.90
7028;DHT22;3555;53.248;10.336;2023-04-30T05:06:01;6.80;99.90
7028;DHT22;3555;53.248;10.336;2023-04-30T05:08:29;6.90;98.90
7028;DHT22;3555;53.248;10.336;2023-04-30T05:10:57;7.20;1.00
7028;DHT22;3555;53.248;10.336;2023-04-30T05:13:23;7.50;1.00
7028;DHT22;3555;53.248;10.336;2023-04-30T05:15:52;7.70;99.90
7028;DHT22;3555;53.248;10.336;2023-04-30T05:18:19;8.00;99.90
7028;DHT22;3555;53.248;10.336;2023-04-30T05:20:46;8.20;1.00
7028;DHT22;3555;53.248;10.336;2023-04-30T05:23:13;8.40;1.00
7028;DHT22;3555;53.248;10.336;2023-04-30T05:25:41;8.70;1.00
7028;DHT22;3555;53.248;10.336;2023-04-30T05:28:08;9.00;1.00
7028;DHT22;3555;53.248;10.336;2023-04-30T05:30:35;9.30;1.00
7028;DHT22;3555;53.248;10.336;2023-04-30T05:33:02;9.60;1.00
7028;DHT22;3555;53.248;10.336;2023-04-30T05:35:29;9.90;1.00
7028;DHT22;3555;53.248;10.336;2023-04-30T05:37:56;10.30;99.90
7028;DHT22;3555;53.248;10.336;2023-04-30T05:40:23;10.60;99.90
7028;DHT22;3555;53.248;10.336;2023-04-30T05:42:51;10.70;99.90
7028;DHT22;3555;53.248;10.336;2023-04-30T05:45:18;10.80;99.90
7028;DHT22;3555;53.248;10.336;2023-04-30T05:47:45;10.90;99.90
7028;DHT22;3555;53.248;10.336;2023-04-30T05:50:12;11.20;99.90
7028;DHT22;3555;53.248;10.336;2023-04-30T05:52:39;11.60;99.90
7028;DHT22;3555;53.248;10.336;2023-04-30T05:55:07;11.90;1.00
7028;DHT22;3555;53.248;10.336;2023-04-30T05:57:34;12.20;1.00
7028;DHT22;3555;53.248;10.336;2023-04-30T06:00:02;12.50;1.00
7028;DHT22;3555;53.248;10.336;2023-04-30T06:02:31;12.70;1.00
7028;DHT22;3555;53.248;10.336;2023-04-30T06:04:58;12.70;1.00
7028;DHT22;3555;53.248;10.336;2023-04-30T06:07:26;13.00;1.00
7028;DHT22;3555;53.248;10.336;2023-04-30T06:09:53;13.20;1.00
7028;DHT22;3555;53.248;10.336;2023-04-30T06:12:20;13.10;1.00
7028;DHT22;3555;53.248;10.336;2023-04-30T06:14:47;12.80;1.00
7028;DHT22;3555;53.248;10.336;2023-04-30T06:17:16;12.80;1.00
7028;DHT22;3555;53.248;10.336;2023-04-30T06:19:43;12.80;1.00
7028;DHT22;3555;53.248;10.336;2023-04-30T06:22:10;12.60;1.00
7028;DHT22;3555;53.248;10.336;2023-04-30T06:24:36;12.50;1.00
7028;DHT22;3555;53.248;10.336;2023-04-30T06:27:03;12.70;1.00
7028;DHT22;3555;53.248;10.336;2023-04-30T06:29:30;12.90;1.00
7028;DHT22;3555;53.248;10.336;2023-04-30T06:31:57;13.20;1.00
7028;DHT22;3555;53.248;10.336;2023-04-30T06:34:25;13.50;1.00
7028;DHT22;3555;53.248;10.336;2023-04-30T06:36:52;13.60;1.00
7028;DHT22;3555;53.248;10.336;2023-04-30T06:39:19;13.90;1.00
7028;DHT22;3555;53.248;10.336;2023-04-30T06:41:46;14.30;1.00
7028;DHT22;3555;53.248;10.336;2023-04-30T06:44:13;14.50;1.00
7028;DHT22;3555;53.248;10.336;2023-04-30T06:46:41;14.90;1.00
7028;DHT22;3555;53.248;10.336;2023-04-30T06:49:07;15.20;1.00
7028;DHT22;3555;53.248;10.336;2023-04-30T06:51:36;15.50;1.00
7028;DHT22;3555;53.248;10.336;2023-04-30T06:54:03;15.70;1.00
7028;DHT22;3555;53.248;10.336;2023-04-30T06:56:30;16.00;1.00
7028;DHT22;3555;53.248;10.336;2023-04-30T06:58:57;16.30;1.00
7028;DHT22;3555;53.248;10.336;2023-04-30T07:01:24;16.40;1.00
7028;DHT22;3555;53.248;10.336;2023-04-30T07:03:51;16.60;1.00
7028;DHT22;3555;53.248;10.336;2023-04-30T07:06:19;16.60;1.00
7028;DHT22;3555;53.248;10.336;2023-04-30T07:08:47;16.60;1.00
7028;DHT22;3555;53.248;10.336;2023-04-30T07:11:14;16.80;1.00
7028;DHT22;3555;53.248;10.336;2023-04-30T07:13:41;17.00;1.00
7028;DHT22;3555;53.248;10.336;2023-04-30T07:16:08;17.20;1.00
7028;DHT22;3555;53.248;10.336;2023-04-30T07:18:35;17.30;1.00
7028;DHT22;3555;53.248;10.336;2023-04-30T07:21:02;17.50;1.00
7028;DHT22;3555;53.248;10.336;2023-04-30T07:23:29;17.60;1.00
7028;DHT22;3555;53.248;10.336;2023-04-30T07:25:58;17.90;1.00
7028;DHT22;3555;53.248;10.336;2023-04-30T07:28:25;18.10;1.00
7028;DHT22;3555;53.248;10.336;2023-04-30T07:30:52;18.10;1.00
7028;DHT22;3555;53.248;10.336;2023-04-30T07:33:18;18.00;1.00
7028;DHT22;3555;53.248;10.336;2023-04-30T07:35:46;18.00;1.00
7028;DHT22;3555;53.248;10.336;2023-04-30T07:38:13;18.10;1.00
7028;DHT22;3555;53.248;10.336;2023-04-30T07:40:41;18.20;1.00
7028;DHT22;3555;53.248;10.336;2023-04-30T07:43:10;18.10;1.00
7028;DHT22;3555;53.248;10.336;2023-04-30T07:45:37;17.90;1.00
7028;DHT22;3555;53.248;10.336;2023-04-30T07:48:04;17.40;1.00
7028;DHT22;3555;53.248;10.336;2023-04-30T07:50:31;17.20;1.00
7028;DHT22;3555;53.248;10.336;2023-04-30T07:52:59;17.10;1.00
7028;DHT22;3555;53.248;10.336;2023-04-30T07:55:26;17.20;1.00
7028;DHT22;3555;53.248;10.336;2023-04-30T07:57:53;17.00;1.00
7028;DHT22;3555;53.248;10.336;2023-04-30T08:00:22;16.80;1.00
7028;DHT22;3555;53.248;10.336;2023-04-30T08:02:50;16.70;1.00
7028;DHT22;3555;53.248;10.336;2023-04-30T08:05:17;16.90;1.00
7028;DHT22;3555;53.248;10.336;2023-04-30T08:07:44;17.00;1.00
7028;DHT22;3555;53.248;10.336;2023-04-30T08:10:11;17.20;1.00
7028;DHT22;3555;53.248;10.336;2023-04-30T08:12:38;17.40;1.00
7028;DHT22;3555;53.248;10.336;2023-04-30T08:15:06;17.70;1.00
7028;DHT22;3555;53.248;10.336;2023-04-30T08:17:34;17.90;1.00
7028;DHT22;3555;53.248;10.336;2023-04-30T08:20:03;18.00;1.00
7028;DHT22;3555;53.248;10.336;2023-04-30T08:22:30;18.00;1.00
7028;DHT22;3555;53.248;10.336;2023-04-30T08:24:58;17.60;1.00
7028;DHT22;3555;53.248;10.336;2023-04-30T08:27:26;17.60;1.00
7028;DHT22;3555;53.248;10.336;2023-04-30T08:29:53;17.60;1.00
7028;DHT22;3555;53.248;10.336;2023-04-30T08:32:20;17.50;1.00
7028;DHT22;3555;53.248;10.336;2023-04-30T08:34:48;17.50;1.00
7028;DHT22;3555;53.248;10.336;2023-04-30T08:37:15;17.60;1.00
7028;DHT22;3555;53.248;10.336;2023-04-30T08:39:41;17.80;1.00
7028;DHT22;3555;53.248;10.336;2023-04-30T08:42:12;18.00;1.00
7028;DHT22;3555;53.248;10.336;2023-04-30T08:44:40;17.50;1.00
7028;DHT22;3555;53.248;10.336;2023-04-30T08:47:09;17.80;1.00
7028;DHT22;3555;53.248;10.336;2023-04-30T08:49:39;17.90;1.00
7028;DHT22;3555;53.248;10.336;2023-04-30T08:52:07;17.80;1.00
7028;DHT22;3555;53.248;10.336;2023-04-30T08:54:35;18.00;1.00
7028;DHT22;3555;53.248;10.336;2023-04-30T08:57:02;18.20;1.00
7028;DHT22;3555;53.248;10.336;2023-04-30T08:59:29;18.20;1.00
7028;DHT22;3555;53.248;10.336;2023-04-30T09:01:56;18.20;1.00
7028;DHT22;3555;53.248;10.336;2023-04-30T09:04:23;18.30;1.00
7028;DHT22;3555;53.248;10.336;2023-04-30T09:06:51;18.30;1.00
7028;DHT22;3555;53.248;10.336;2023-04-30T09:09:27;18.50;1.00
7028;DHT22;3555;53.248;10.336;2023-04-30T09:12:10;18.70;1.00
7028;DHT22;3555;53.248;10.336;2023-04-30T09:14:38;18.90;1.00
7028;DHT22;3555;53.248;10.336;2023-04-30T09:17:06;19.00;1.00
7028;DHT22;3555;53.248;10.336;2023-04-30T09:19:34;19.00;1.00
7028;DHT22;3555;53.248;10.336;2023-04-30T09:22:19;19.10;1.00
7028;DHT22;3555;53.248;10.336;2023-04-30T09:24:48;19.30;1.00
7028;DHT22;3555;53.248;10.336;2023-04-30T09:27:16;19.40;1.00
7028;DHT22;3555;53.248;10.336;2023-04-30T09:29:44;19.30;1.00
7028;DHT22;3555;53.248;10.336;2023-04-30T09:32:12;19.50;1.00
7028;DHT22;3555;53.248;10.336;2023-04-30T09:34:39;19.60;1.00
7028;DHT22;3555;53.248;10.336;2023-04-30T09:37:08;19.70;1.00
7028;DHT22;3555;53.248;10.336;2023-04-30T09:39:46;19.60;1.00
7028;DHT22;3555;53.248;10.336;2023-04-30T09:42:15;19.40;1.00
7028;DHT22;3555;53.248;10.336;2023-04-30T09:44:42;19.00;1.00
7028;DHT22;3555;53.248;10.336;2023-04-30T09:47:13;19.00;1.00
7028;DHT22;3555;53.248;10.336;2023-04-30T09:49:41;19.20;1.00
7028;DHT22;3555;53.248;10.336;2023-04-30T09:52:09;19.40;1.00
7028;DHT22;3555;53.248;10.336;2023-04-30T09:54:36;19.20;1.00
7028;DHT22;3555;53.248;10.336;2023-04-30T09:57:03;18.30;1.00
7028;DHT22;3555;53.248;10.336;2023-04-30T09:59:33;18.50;1.00
7028;DHT22;3555;53.248;10.336;2023-04-30T10:02:03;18.90;1.00
7028;DHT22;3555;53.248;10.336;2023-04-30T10:04:33;19.00;1.00
7028;DHT22;3555;53.248;10.336;2023-04-30T10:07:03;19.30;1.00
7028;DHT22;3555;53.248;10.336;2023-04-30T10:09:34;19.70;1.00
7028;DHT22;3555;53.248;10.336;2023-04-30T10:12:05;20.00;1.00
7028;DHT22;3555;53.248;10.336;2023-04-30T10:14:35;20.30;1.00
7028;DHT22;3555;53.248;10.336;2023-04-30T10:17:07;20.60;1.00
7028;DHT22;3555;53.248;10.336;2023-04-30T10:19:38;20.80;1.00
7028;DHT22;3555;53.248;10.336;2023-04-30T10:22:06;21.20;1.00
7028;DHT22;3555;53.248;10.336;2023-04-30T10:24:34;21.30;1.00
7028;DHT22;3555;53.248;10.336;2023-04-30T10:27:01;21.30;1.00
7028;DHT22;3555;53.248;10.336;2023-04-30T10:29:28;21.40;1.00
7028;DHT22;3555;53.248;10.336;2023-04-30T10:31:56;20.90;1.00
7028;DHT22;3555;53.248;10.336;2023-04-30T10:34:30;20.90;1.00
7028;DHT22;3555;53.248;10.336;2023-04-30T10:37:05;20.80;1.00
7028;DHT22;3555;53.248;10.336;2023-04-30T10:39:34;20.70;1.00
7028;DHT22;3555;53.248;10.336;2023-04-30T10:42:04;20.10;1.00
7028;DHT22;3555;53.248;10.336;2023-04-30T10:44:32;20.40;1.00
7028;DHT22;3555;53.248;10.336;2023-04-30T10:47:01;20.80;1.00
7028;DHT22;3555;53.248;10.336;2023-04-30T10:49:28;21.20;1.00
7028;DHT22;3555;53.248;10.336;2023-04-30T10:51:58;21.50;1.00
7028;DHT22;3555;53.248;10.336;2023-04-30T10:54:27;21.70;1.00
7028;DHT22;3555;53.248;10.336;2023-04-30T10:57:11;21.90;1.00
7028;DHT22;3555;53.248;10.336;2023-04-30T10:59:41;22.40;1.00
7028;DHT22;3555;53.248;10.336;2023-04-30T11:02:14;22.20;1.00
7028;DHT22;3555;53.248;10.336;2023-04-30T11:05:09;22.40;1.00
7028;DHT22;3555;53.248;10.336;2023-04-30T11:07:36;22.50;1.00
7028;DHT22;3555;53.248;10.336;2023-04-30T11:10:06;22.70;1.00
7028;DHT22;3555;53.248;10.336;2023-04-30T11:12:34;23.00;1.00
7028;DHT22;3555;53.248;10.336;2023-04-30T11:15:11;23.30;1.00
7028;DHT22;3555;53.248;10.336;2023-04-30T11:17:39;23.10;1.00
7028;DHT22;3555;53.248;10.336;2023-04-30T11:20:11;23.10;1.00
7028;DHT22;3555;53.248;10.336;2023-04-30T11:22:38;22.60;1.00
7028;DHT22;3555;53.248;10.336;2023-04-30T11:25:07;22.20;1.00
7028;DHT22;3555;53.248;10.336;2023-04-30T11:27:35;21.50;1.00
7028;DHT22;3555;53.248;10.336;2023-04-30T11:30:09;21.70;1.00
7028;DHT22;3555;53.248;10.336;2023-04-30T11:32:39;22.10;1.00
7028;DHT22;3555;53.248;10.336;2023-04-30T11:35:07;22.50;1.00
7028;DHT22;3555;53.248;10.336;2023-04-30T11:37:36;22.50;1.00
7028;DHT22;3555;53.248;10.336;2023-04-30T11:40:05;22.30;1.00
7028;DHT22;3555;53.248;10.336;2023-04-30T11:42:33;22.00;1.00
7028;DHT22;3555;53.248;10.336;2023-04-30T11:45:05;22.20;1.00
7028;DHT22;3555;53.248;10.336;2023-04-30T11:47:44;22.30;1.00
7028;DHT22;3555;53.248;10.336;2023-04-30T11:50:12;22.50;1.00
7028;DHT22;3555;53.248;10.336;2023-04-30T11:52:40;21.50;1.00
7028;DHT22;3555;53.248;10.336;2023-04-30T11:55:12;21.30;1.00
7028;DHT22;3555;53.248;10.336;2023-04-30T11:57:40;21.10;1.00
7028;DHT22;3555;53.248;10.336;2023-04-30T12:00:10;20.80;1.00
7028;DHT22;3555;53.248;10.336;2023-04-30T12:02:38;20.60;1.00
7028;DHT22;3555;53.248;10.336;2023-04-30T12:05:11;20.90;1.00
7028;DHT22;3555;53.248;10.336;2023-04-30T12:07:44;21.20;1.00
7028;DHT22;3555;53.248;10.336;2023-04-30T12:10:11;21.60;1.00
7028;DHT22;3555;53.248;10.336;2023-04-30T12:12:38;21.90;1.00
7028;DHT22;3555;53.248;10.336;2023-04-30T12:15:13;22.00;1.00
7028;DHT22;3555;53.248;10.336;2023-04-30T12:17:40;22.20;1.00
7028;DHT22;3555;53.248;10.336;2023-04-30T12:20:10;22.50;1.00
7028;DHT22;3555;53.248;10.336;2023-04-30T12:22:37;22.60;1.00
7028;DHT22;3555;53.248;10.336;2023-04-30T12:25:06;22.90;1.00
7028;DHT22;3555;53.248;10.336;2023-04-30T12:27:34;22.80;1.00
7028;DHT22;3555;53.248;10.336;2023-04-30T12:30:04;22.60;1.00
7028;DHT22;3555;53.248;10.336;2023-04-30T12:32:37;22.50;1.00
7028;DHT22;3555;53.248;10.336;2023-04-30T12:35:05;21.80;1.00
7028;DHT22;3555;53.248;10.336;2023-04-30T12:37:34;22.10;1.00
7028;DHT22;3555;53.248;10.336;2023-04-30T12:40:02;22.40;1.00
7028;DHT22;3555;53.248;10.336;2023-04-30T12:42:32;22.70;1.00
7028;DHT22;3555;53.248;10.336;2023-04-30T12:45:00;23.00;1.00
7028;DHT22;3555;53.248;10.336;2023-04-30T12:47:28;23.10;1.00
7028;DHT22;3555;53.248;10.336;2023-04-30T12:49:55;22.90;1.00
7028;DHT22;3555;53.248;10.336;2023-04-30T12:52:24;22.90;1.00
7028;DHT22;3555;53.248;10.336;2023-04-30T12:54:53;23.00;1.00
7028;DHT22;3555;53.248;10.336;2023-04-30T12:57:20;22.90;99.90
7028;DHT22;3555;53.248;10.336;2023-04-30T12:59:58;22.20;99.90
7028;DHT22;3555;53.248;10.336;2023-04-30T13:02:26;22.00;99.90
7028;DHT22;3555;53.248;10.336;2023-04-30T13:04:54;22.00;1.00
7028;DHT22;3555;53.248;10.336;2023-04-30T13:07:21;22.00;99.90
7028;DHT22;3555;53.248;10.336;2023-04-30T13:09:48;22.00;1.00
7028;DHT22;3555;53.248;10.336;2023-04-30T13:12:16;22.20;1.00
7028;DHT22;3555;53.248;10.336;2023-04-30T13:14:43;22.60;1.00
7028;DHT22;3555;53.248;10.336;2023-04-30T13:17:10;22.20;99.90
7028;DHT22;3555;53.248;10.336;2023-04-30T13:19:38;21.70;99.90
7028;DHT22;3555;53.248;10.336;2023-04-30T13:22:05;21.20;1.00
7028;DHT22;3555;53.248;10.336;2023-04-30T13:24:32;21.00;99.90
7028;DHT22;3555;53.248;10.336;2023-04-30T13:26:58;21.30;1.00
7028;DHT22;3555;53.248;10.336;2023-04-30T13:29:28;21.40;1.00
7028;DHT22;3555;53.248;10.336;2023-04-30T13:31:56;21.60;99.90
7028;DHT22;3555;53.248;10.336;2023-04-30T13:34:23;21.60;1.00
7028;DHT22;3555;53.248;10.336;2023-04-30T13:36:50;21.90;1.00
7028;DHT22;3555;53.248;10.336;2023-04-30T13:39:18;22.40;1.00
7028;DHT22;3555;53.248;10.336;2023-04-30T13:41:46;22.70;99.90
7028;DHT22;3555;53.248;10.336;2023-04-30T13:44:13;22.90;99.90
7028;DHT22;3555;53.248;10.336;2023-04-30T13:46:42;23.20;99.90
7028;DHT22;3555;53.248;10.336;2023-04-30T13:49:09;22.70;99.90
7028;DHT22;3555;53.248;10.336;2023-04-30T13:51:36;22.40;99.90
7028;DHT22;3555;53.248;10.336;2023-04-30T13:54:06;22.80;99.90
7028;DHT22;3555;53.248;10.336;2023-04-30T13:56:32;22.60;99.90
7028;DHT22;3555;53.248;10.336;2023-04-30T13:58:59;22.50;99.90
7028;DHT22;3555;53.248;10.336;2023-04-30T14:01:26;22.20;99.90
7028;DHT22;3555;53.248;10.336;2023-04-30T14:03:55;22.20;99.90
7028;DHT22;3555;53.248;10.336;2023-04-30T14:06:21;22.20;99.90
7028;DHT22;3555;53.248;10.336;2023-04-30T14:08:48;22.50;99.90
7028;DHT22;3555;53.248;10.336;2023-04-30T14:11:15;22.60;99.90
7028;DHT22;3555;53.248;10.336;2023-04-30T14:13:42;22.80;99.90
7028;DHT22;3555;53.248;10.336;2023-04-30T14:16:09;22.10;99.90
7028;DHT22;3555;53.248;10.336;2023-04-30T14:18:37;22.20;99.90
7028;DHT22;3555;53.248;10.336;2023-04-30T14:21:07;22.30;99.90
7028;DHT22;3555;53.248;10.336;2023-04-30T14:23:34;22.50;99.90
7028;DHT22;3555;53.248;10.336;2023-04-30T14:26:03;22.60;99.90
7028;DHT22;3555;53.248;10.336;2023-04-30T14:28:30;22.70;99.90
7028;DHT22;3555;53.248;10.336;2023-04-30T14:30:57;22.70;99.90
7028;DHT22;3555;53.248;10.336;2023-04-30T14:33:24;23.00;99.90
7028;DHT22;3555;53.248;10.336;2023-04-30T14:35:51;23.10;99.90
7028;DHT22;3555;53.248;10.336;2023-04-30T14:38:20;23.20;99.90
7028;DHT22;3555;53.248;10.336;2023-04-30T14:40:47;23.40;99.90
7028;DHT22;3555;53.248;10.336;2023-04-30T14:43:13;23.40;99.90
7028;DHT22;3555;53.248;10.336;2023-04-30T14:45:40;23.50;99.90
7028;DHT22;3555;53.248;10.336;2023-04-30T14:48:09;22.60;99.90
7028;DHT22;3555;53.248;10.336;2023-04-30T14:50:35;22.40;99.90
7028;DHT22;3555;53.248;10.336;2023-04-30T14:53:03;22.40;99.90
7028;DHT22;3555;53.248;10.336;2023-04-30T14:55:31;22.40;99.90
7028;DHT22;3555;53.248;10.336;2023-04-30T14:57:58;22.20;99.90
7028;DHT22;3555;53.248;10.336;2023-04-30T15:00:25;21.90;99.90
7028;DHT22;3555;53.248;10.336;2023-04-30T15:02:52;22.00;99.90
7028;DHT22;3555;53.248;10.336;2023-04-30T15:05:19;22.20;99.90
7028;DHT22;3555;53.248;10.336;2023-04-30T15:07:46;22.10;99.90
7028;DHT22;3555;53.248;10.336;2023-04-30T15:10:13;21.30;99.90
7028;DHT22;3555;53.248;10.336;2023-04-30T15:12:42;20.60;99.90
7028;DHT22;3555;53.248;10.336;2023-04-30T15:15:10;20.60;99.90
7028;DHT22;3555;53.248;10.336;2023-04-30T15:17:37;20.90;99.90
7028;DHT22;3555;53.248;10.336;2023-04-30T15:20:05;21.20;99.90
7028;DHT22;3555;53.248;10.336;2023-04-30T15:22:33;21.40;99.90
7028;DHT22;3555;53.248;10.336;2023-04-30T15:25:00;21.40;99.90
7028;DHT22;3555;53.248;10.336;2023-04-30T15:27:27;21.50;99.90
7028;DHT22;3555;53.248;10.336;2023-04-30T15:29:55;21.50;99.90
7028;DHT22;3555;53.248;10.336;2023-04-30T15:32:22;21.50;99.90
7028;DHT22;3555;53.248;10.336;2023-04-30T15:34:49;21.40;99.90
7028;DHT22;3555;53.248;10.336;2023-04-30T15:37:16;21.00;99.90
7028;DHT22;3555;53.248;10.336;2023-04-30T15:39:43;20.90;99.90
7028;DHT22;3555;53.248;10.336;2023-04-30T15:42:10;20.90;99.90
7028;DHT22;3555;53.248;10.336;2023-04-30T15:44:37;21.10;99.90
7028;DHT22;3555;53.248;10.336;2023-04-30T15:47:05;21.20;99.90
7028;DHT22;3555;53.248;10.336;2023-04-30T15:49:32;21.20;99.90
7028;DHT22;3555;53.248;10.336;2023-04-30T15:51:59;21.30;99.90
7028;DHT22;3555;53.248;10.336;2023-04-30T15:54:26;21.40;99.90
7028;DHT22;3555;53.248;10.336;2023-04-30T15:56:53;21.50;99.90
7028;DHT22;3555;53.248;10.336;2023-04-30T15:59:21;21.80;99.90
7028;DHT22;3555;53.248;10.336;2023-04-30T16:01:48;21.60;99.90
7028;DHT22;3555;53.248;10.336;2023-04-30T16:04:16;21.50;99.90
7028;DHT22;3555;53.248;10.336;2023-04-30T16:06:43;21.20;99.90
7028;DHT22;3555;53.248;10.336;2023-04-30T16:09:11;21.30;99.90